Time;durP1;ratioP1;P1;durP2;ratioP2;P2;SDS_P1;SDS_P2;PMS_P1;PMS_P2;Temp;Humidity;BMP_temperature;BMP_pressure;BME280_temperature;BME280_humidity;BME280_pressure;Samples;Min_cycle;Max_cycle;Signal;HPM_P1;HPM_P2
2022/12/29 00:00:00;;;;;;;0.8;0.8;;;;;;;10.2;100.0;99860;;;;
2022/12/29 00:01:01;;;;;;;0.8;0.8;;;;;;;10.2;100.0;99860;;;;
2022/12/29 00:02:00;;;;;;;0.8;0.8;;;;;;;10.2;100.0;99860;;;;
2022/12/29 00:03:00;;;;;;;0.8;0.8;;;;;;;10.2;100.0;99860;;;;
2022/12/29 00:04:01;;;;;;;0.8;0.8;;;;;;;10.1;100.0;99860;;;;
2022/12/29 00:05:00;;;;;;;0.8;0.8;;;;;;;10.1;100.0;99860;;;;
2022/12/29 00:06:01;;;;;;;0.8;0.8;;;;;;;10.1;100.0;99840;;;;
2022/12/29 00:07:00;;;;;;;0.8;0.8;;;;;;;10.1;100.0;99840;;;;
2022/12/29 00:08:00;;;;;;;0.8;0.8;;;;;;;10.2;100.0;99840;;;;
2022/12/29 00:09:00;;;;;;;0.8;0.8;;;;;;;10.2;100.0;99840;;;;
2022/12/29 00:10:00;;;;;;;0.8;0.8;;;;;;;10.2;100.0;99840;;;;
2022/12/29 00:11:00;;;;;;;0.8;0.8;;;;;;;10.2;100.0;99840;;;;
2022/12/29 00:12:01;;;;;;;0.8;0.8;;;;;;;10.2;100.0;99850;;;;
2022/12/29 00:16:00;;;;;;;0.7;0.7;;;;;;;10.2;100.0;99840;;;;
2022/12/29 00:17:00;;;;;;;0.7;0.7;;;;;;;10.2;100.0;99840;;;;
2022/12/29 00:18:00;;;;;;;0.7;0.7;;;;;;;10.2;100.0;99840;;;;
2022/12/29 00:19:00;;;;;;;0.7;0.7;;;;;;;10.2;100.0;99840;;;;
2022/12/29 00:36:04;;;;;;;0.8;0.8;;;;;;;10.0;100.0;99810;;;;
2022/12/29 00:37:00;;;;;;;0.8;0.8;;;;;;;10.0;100.0;99810;;;;
2022/12/29 00:44:09;;;;;;;0.8;0.8;;;;;;;9.9;100.0;99820;;;;
2022/12/29 00:45:00;;;;;;;0.8;0.8;;;;;;;9.9;100.0;99820;;;;
2022/12/29 00:46:00;;;;;;;0.8;0.8;;;;;;;9.9;100.0;99820;;;;
2022/12/29 00:47:02;;;;;;;0.8;0.8;;;;;;;9.9;100.0;99820;;;;
2022/12/29 00:48:00;;;;;;;0.8;0.8;;;;;;;9.9;100.0;99810;;;;
2022/12/29 00:50:00;;;;;;;0.8;0.8;;;;;;;9.9;100.0;99820;;;;
2022/12/29 00:51:00;;;;;;;0.8;0.8;;;;;;;9.9;100.0;99820;;;;
2022/12/29 00:52:09;;;;;;;0.8;0.8;;;;;;;9.8;100.0;99810;;;;
2022/12/29 00:53:00;;;;;;;0.8;0.8;;;;;;;9.8;100.0;99810;;;;
2022/12/29 00:54:00;;;;;;;0.8;0.8;;;;;;;9.8;100.0;99800;;;;
2022/12/29 00:55:00;;;;;;;0.8;0.8;;;;;;;9.8;100.0;99800;;;;
2022/12/29 00:56:00;;;;;;;0.8;0.8;;;;;;;9.8;100.0;99810;;;;
2022/12/29 00:57:01;;;;;;;0.8;0.8;;;;;;;9.8;100.0;99810;;;;
2022/12/29 00:58:00;;;;;;;0.8;0.8;;;;;;;9.8;100.0;99790;;;;
2022/12/29 00:59:01;;;;;;;0.8;0.8;;;;;;;9.8;100.0;99790;;;;
2022/12/29 01:00:00;;;;;;;0.8;0.8;;;;;;;9.9;100.0;99790;;;;
2022/12/29 01:01:01;;;;;;;0.8;0.8;;;;;;;9.9;100.0;99790;;;;
2022/12/29 01:02:00;;;;;;;0.8;0.8;;;;;;;9.8;100.0;99790;;;;
2022/12/29 01:03:00;;;;;;;0.8;0.8;;;;;;;9.8;100.0;99790;;;;
2022/12/29 01:04:04;;;;;;;0.8;0.8;;;;;;;9.8;100.0;99790;;;;
2022/12/29 01:05:00;;;;;;;0.8;0.8;;;;;;;9.8;100.0;99790;;;;
2022/12/29 01:06:01;;;;;;;0.8;0.8;;;;;;;9.9;100.0;99790;;;;
2022/12/29 01:07:00;;;;;;;0.8;0.8;;;;;;;9.9;100.0;99790;;;;
2022/12/29 01:08:00;;;;;;;0.8;0.8;;;;;;;9.9;100.0;99790;;;;
2022/12/29 01:11:01;;;;;;;0.8;0.8;;;;;;;9.9;100.0;99790;;;;
2022/12/29 01:12:00;;;;;;;0.8;0.8;;;;;;;9.9;100.0;99790;;;;
2022/12/29 01:13:00;;;;;;;0.8;0.8;;;;;;;9.9;100.0;99790;;;;
2022/12/29 01:14:00;;;;;;;0.8;0.8;;;;;;;9.9;100.0;99790;;;;
2022/12/29 01:15:00;;;;;;;0.9;0.9;;;;;;;9.9;100.0;99790;;;;
2022/12/29 01:16:00;;;;;;;0.9;0.9;;;;;;;9.9;100.0;99780;;;;
2022/12/29 01:17:00;;;;;;;0.9;0.9;;;;;;;9.9;100.0;99780;;;;
2022/12/29 01:18:00;;;;;;;0.9;0.9;;;;;;;9.9;100.0;99780;;;;
2022/12/29 01:19:00;;;;;;;0.9;0.9;;;;;;;9.9;100.0;99780;;;;
2022/12/29 01:20:00;;;;;;;0.9;0.9;;;;;;;9.9;100.0;99780;;;;
2022/12/29 01:21:01;;;;;;;0.9;0.9;;;;;;;9.9;100.0;99780;;;;
2022/12/29 01:22:00;;;;;;;0.9;0.9;;;;;;;9.9;100.0;99770;;;;
2022/12/29 01:23:00;;;;;;;0.9;0.9;;;;;;;9.9;100.0;99770;;;;
2022/12/29 01:24:00;;;;;;;0.9;0.9;;;;;;;10.0;100.0;99760;;;;
2022/12/29 01:25:00;;;;;;;0.9;0.9;;;;;;;10.0;100.0;99760;;;;
2022/12/29 01:26:08;;;;;;;0.9;0.9;;;;;;;10.0;100.0;99770;;;;
2022/12/29 01:27:00;;;;;;;0.9;0.9;;;;;;;10.0;100.0;99770;;;;
2022/12/29 01:28:00;;;;;;;0.9;0.9;;;;;;;10.0;100.0;99770;;;;
2022/12/29 01:29:00;;;;;;;0.9;0.9;;;;;;;10.0;100.0;99770;;;;
2022/12/29 01:30:00;;;;;;;0.9;0.9;;;;;;;10.1;100.0;99770;;;;
2022/12/29 01:31:00;;;;;;;0.9;0.9;;;;;;;10.1;100.0;99770;;;;
2022/12/29 01:32:00;;;;;;;0.9;0.9;;;;;;;10.0;100.0;99770;;;;
2022/12/29 01:33:00;;;;;;;0.9;0.9;;;;;;;10.0;100.0;99770;;;;
2022/12/29 01:34:00;;;;;;;0.9;0.9;;;;;;;10.0;100.0;99770;;;;
2022/12/29 01:35:00;;;;;;;0.8;0.8;;;;;;;10.0;100.0;99770;;;;
2022/12/29 01:36:01;;;;;;;0.8;0.8;;;;;;;10.0;100.0;99770;;;;
2022/12/29 01:37:00;;;;;;;0.8;0.8;;;;;;;10.0;100.0;99770;;;;
2022/12/29 01:38:00;;;;;;;0.8;0.8;;;;;;;10.0;100.0;99760;;;;
2022/12/29 01:39:00;;;;;;;0.8;0.8;;;;;;;10.0;100.0;99760;;;;
2022/12/29 01:40:00;;;;;;;0.8;0.8;;;;;;;10.1;100.0;99750;;;;
2022/12/29 01:41:00;;;;;;;0.8;0.8;;;;;;;10.1;100.0;99750;;;;
2022/12/29 01:42:00;;;;;;;0.8;0.8;;;;;;;10.1;100.0;99750;;;;
2022/12/29 01:43:00;;;;;;;0.8;0.8;;;;;;;10.1;100.0;99750;;;;
2022/12/29 01:44:01;;;;;;;0.8;0.8;;;;;;;10.1;100.0;99740;;;;
2022/12/29 01:45:03;;;;;;;0.8;0.8;;;;;;;10.1;100.0;99740;;;;
2022/12/29 01:46:00;;;;;;;0.8;0.8;;;;;;;10.1;100.0;99740;;;;
2022/12/29 01:47:00;;;;;;;0.8;0.8;;;;;;;10.1;100.0;99740;;;;
2022/12/29 01:48:03;;;;;;;0.8;0.8;;;;;;;10.1;100.0;99740;;;;
2022/12/29 01:49:08;;;;;;;0.8;0.8;;;;;;;10.1;100.0;99740;;;;
2022/12/29 01:50:04;;;;;;;0.8;0.8;;;;;;;10.1;100.0;99750;;;;
2022/12/29 01:51:00;;;;;;;0.8;0.8;;;;;;;10.1;100.0;99750;;;;
2022/12/29 01:52:02;;;;;;;0.8;0.8;;;;;;;10.1;100.0;99740;;;;
2022/12/29 01:53:05;;;;;;;0.8;0.8;;;;;;;10.1;100.0;99740;;;;
2022/12/29 01:54:03;;;;;;;0.8;0.8;;;;;;;10.1;100.0;99740;;;;
2022/12/29 01:55:01;;;;;;;0.7;0.7;;;;;;;10.1;100.0;99740;;;;
2022/12/29 01:56:03;;;;;;;0.7;0.7;;;;;;;10.1;100.0;99740;;;;
2022/12/29 01:57:02;;;;;;;0.7;0.7;;;;;;;10.1;100.0;99740;;;;
2022/12/29 01:58:03;;;;;;;0.7;0.7;;;;;;;10.1;100.0;99740;;;;
2022/12/29 01:59:03;;;;;;;0.7;0.7;;;;;;;10.1;100.0;99740;;;;
2022/12/29 02:00:03;;;;;;;0.7;0.7;;;;;;;10.0;100.0;99730;;;;
2022/12/29 02:01:00;;;;;;;0.7;0.7;;;;;;;10.0;100.0;99730;;;;
2022/12/29 02:02:01;;;;;;;0.7;0.7;;;;;;;10.1;100.0;99740;;;;
2022/12/29 02:03:00;;;;;;;0.7;0.7;;;;;;;10.1;100.0;99740;;;;
2022/12/29 02:04:01;;;;;;;0.7;0.7;;;;;;;10.1;100.0;99740;;;;
2022/12/29 02:05:05;;;;;;;0.7;0.7;;;;;;;10.1;100.0;99740;;;;
2022/12/29 02:06:10;;;;;;;0.7;0.7;;;;;;;10.1;100.0;99740;;;;
2022/12/29 02:07:08;;;;;;;0.7;0.7;;;;;;;10.1;100.0;99740;;;;
2022/12/29 02:08:01;;;;;;;0.7;0.7;;;;;;;10.1;100.0;99740;;;;
2022/12/29 02:09:00;;;;;;;0.7;0.7;;;;;;;10.1;100.0;99740;;;;
2022/12/29 02:10:01;;;;;;;0.7;0.7;;;;;;;10.1;100.0;99730;;;;
2022/12/29 02:11:00;;;;;;;0.7;0.7;;;;;;;10.1;100.0;99730;;;;
2022/12/29 02:12:00;;;;;;;0.7;0.7;;;;;;;10.1;100.0;99740;;;;
2022/12/29 02:13:00;;;;;;;0.7;0.7;;;;;;;10.1;100.0;99740;;;;
2022/12/29 02:14:04;;;;;;;0.7;0.7;;;;;;;10.0;100.0;99740;;;;
2022/12/29 02:15:01;;;;;;;0.7;0.7;;;;;;;10.0;100.0;99740;;;;
2022/12/29 02:16:01;;;;;;;0.7;0.7;;;;;;;10.1;100.0;99740;;;;
2022/12/29 02:17:00;;;;;;;0.7;0.7;;;;;;;10.1;100.0;99740;;;;
2022/12/29 02:18:09;;;;;;;0.7;0.7;;;;;;;10.1;100.0;99740;;;;
2022/12/29 02:19:01;;;;;;;0.7;0.7;;;;;;;10.1;100.0;99740;;;;
2022/12/29 02:20:10;;;;;;;0.7;0.7;;;;;;;10.1;100.0;99740;;;;
2022/12/29 02:21:00;;;;;;;0.7;0.7;;;;;;;10.1;100.0;99740;;;;
2022/12/29 02:22:10;;;;;;;0.7;0.7;;;;;;;10.1;100.0;99740;;;;
2022/12/29 02:23:11;;;;;;;0.7;0.7;;;;;;;10.1;100.0;99740;;;;
2022/12/29 02:24:10;;;;;;;0.7;0.7;;;;;;;10.1;100.0;99740;;;;
2022/12/29 02:25:00;;;;;;;0.7;0.7;;;;;;;10.1;100.0;99740;;;;
2022/12/29 02:26:10;;;;;;;0.7;0.7;;;;;;;10.1;100.0;99750;;;;
2022/12/29 02:27:11;;;;;;;0.7;0.7;;;;;;;10.1;100.0;99750;;;;
2022/12/29 02:28:03;;;;;;;0.7;0.7;;;;;;;10.0;100.0;99730;;;;
2022/12/29 02:29:10;;;;;;;0.7;0.7;;;;;;;10.0;100.0;99730;;;;
2022/12/29 02:30:01;;;;;;;0.7;0.7;;;;;;;10.1;100.0;99730;;;;
2022/12/29 02:31:10;;;;;;;0.7;0.7;;;;;;;10.1;100.0;99730;;;;
2022/12/29 02:32:07;;;;;;;0.7;0.7;;;;;;;10.2;100.0;99750;;;;
2022/12/29 02:33:10;;;;;;;0.7;0.7;;;;;;;10.2;100.0;99750;;;;
2022/12/29 02:34:10;;;;;;;0.9;0.9;;;;;;;10.1;100.0;99740;;;;
2022/12/29 02:35:07;;;;;;;0.9;0.9;;;;;;;10.1;100.0;99740;;;;
2022/12/29 02:36:07;;;;;;;0.9;0.9;;;;;;;10.1;100.0;99740;;;;
2022/12/29 02:37:05;;;;;;;0.9;0.9;;;;;;;10.1;100.0;99740;;;;
2022/12/29 02:38:07;;;;;;;0.9;0.9;;;;;;;10.2;100.0;99720;;;;
2022/12/29 02:39:10;;;;;;;0.9;0.9;;;;;;;10.2;100.0;99720;;;;
2022/12/29 02:40:05;;;;;;;0.9;0.9;;;;;;;10.2;100.0;99730;;;;
2022/12/29 02:41:10;;;;;;;0.9;0.9;;;;;;;10.2;100.0;99730;;;;
2022/12/29 02:42:09;;;;;;;0.9;0.9;;;;;;;10.2;100.0;99730;;;;
2022/12/29 02:43:00;;;;;;;0.9;0.9;;;;;;;10.2;100.0;99730;;;;
2022/12/29 02:44:10;;;;;;;0.9;0.9;;;;;;;10.1;100.0;99720;;;;
2022/12/29 02:45:10;;;;;;;0.9;0.9;;;;;;;10.1;100.0;99720;;;;
2022/12/29 02:46:07;;;;;;;0.9;0.9;;;;;;;10.1;100.0;99730;;;;
2022/12/29 02:47:06;;;;;;;0.9;0.9;;;;;;;10.1;100.0;99730;;;;
2022/12/29 02:48:00;;;;;;;0.9;0.9;;;;;;;10.2;100.0;99720;;;;
2022/12/29 02:49:10;;;;;;;0.9;0.9;;;;;;;10.2;100.0;99720;;;;
2022/12/29 02:50:07;;;;;;;0.9;0.9;;;;;;;10.1;100.0;99730;;;;
2022/12/29 02:51:02;;;;;;;0.9;0.9;;;;;;;10.1;100.0;99730;;;;
2022/12/29 02:52:03;;;;;;;0.9;0.9;;;;;;;10.1;100.0;99720;;;;
2022/12/29 02:53:02;;;;;;;0.9;0.9;;;;;;;10.1;100.0;99720;;;;
2022/12/29 02:55:00;;;;;;;0.7;0.7;;;;;;;10.2;100.0;99730;;;;
2022/12/29 02:56:00;;;;;;;0.7;0.7;;;;;;;10.2;100.0;99730;;;;
2022/12/29 02:57:00;;;;;;;0.7;0.7;;;;;;;10.2;100.0;99730;;;;
2022/12/29 02:58:10;;;;;;;0.7;0.7;;;;;;;10.2;100.0;99730;;;;
2022/12/29 02:59:00;;;;;;;0.7;0.7;;;;;;;10.2;100.0;99730;;;;
2022/12/29 03:00:03;;;;;;;0.7;0.7;;;;;;;10.2;100.0;99720;;;;
2022/12/29 03:01:08;;;;;;;0.7;0.7;;;;;;;10.2;100.0;99720;;;;
2022/12/29 03:03:10;;;;;;;0.7;0.7;;;;;;;10.1;100.0;99730;;;;
2022/12/29 03:04:01;;;;;;;0.7;0.7;;;;;;;10.1;100.0;99730;;;;
2022/12/29 03:05:01;;;;;;;0.7;0.7;;;;;;;10.1;100.0;99730;;;;
2022/12/29 03:06:07;;;;;;;0.7;0.7;;;;;;;10.1;100.0;99720;;;;
2022/12/29 03:07:09;;;;;;;0.7;0.7;;;;;;;10.1;100.0;99720;;;;
2022/12/29 03:08:05;;;;;;;0.7;0.7;;;;;;;10.2;100.0;99720;;;;
2022/12/29 03:09:01;;;;;;;0.7;0.7;;;;;;;10.2;100.0;99720;;;;
2022/12/29 03:10:00;;;;;;;0.7;0.7;;;;;;;10.2;100.0;99720;;;;
2022/12/29 03:11:05;;;;;;;0.7;0.7;;;;;;;10.2;100.0;99720;;;;
2022/12/29 03:12:11;;;;;;;0.7;0.7;;;;;;;10.2;100.0;99720;;;;
2022/12/29 03:16:05;;;;;;;0.9;0.9;;;;;;;10.3;100.0;99720;;;;
2022/12/29 03:17:06;;;;;;;0.9;0.9;;;;;;;10.3;100.0;99720;;;;
2022/12/29 03:18:05;;;;;;;0.9;0.9;;;;;;;10.3;100.0;99720;;;;
2022/12/29 03:19:04;;;;;;;0.9;0.9;;;;;;;10.3;100.0;99720;;;;
2022/12/29 03:20:06;;;;;;;0.9;0.9;;;;;;;10.3;100.0;99710;;;;
2022/12/29 03:21:03;;;;;;;0.9;0.9;;;;;;;10.3;100.0;99710;;;;
2022/12/29 03:23:01;;;;;;;0.9;0.9;;;;;;;10.2;100.0;99720;;;;
2022/12/29 03:24:00;;;;;;;0.9;0.9;;;;;;;10.3;100.0;99720;;;;
2022/12/29 03:25:04;;;;;;;0.9;0.9;;;;;;;10.3;100.0;99720;;;;
2022/12/29 03:26:02;;;;;;;0.9;0.9;;;;;;;10.2;100.0;99720;;;;
2022/12/29 03:27:02;;;;;;;0.9;0.9;;;;;;;10.2;100.0;99720;;;;
2022/12/29 03:28:03;;;;;;;0.9;0.9;;;;;;;10.3;100.0;99720;;;;
2022/12/29 03:29:01;;;;;;;0.9;0.9;;;;;;;10.3;100.0;99720;;;;
2022/12/29 03:30:02;;;;;;;0.9;0.9;;;;;;;10.2;100.0;99720;;;;
2022/12/29 03:31:01;;;;;;;0.9;0.9;;;;;;;10.2;100.0;99720;;;;
2022/12/29 03:32:02;;;;;;;0.9;0.9;;;;;;;10.2;100.0;99730;;;;
2022/12/29 03:33:03;;;;;;;0.9;0.9;;;;;;;10.2;100.0;99730;;;;
2022/12/29 03:34:00;;;;;;;0.7;0.7;;;;;;;10.2;100.0;99720;;;;
2022/12/29 03:35:01;;;;;;;0.7;0.7;;;;;;;10.2;100.0;99720;;;;
2022/12/29 03:36:03;;;;;;;0.7;0.7;;;;;;;10.3;100.0;99720;;;;
2022/12/29 03:37:02;;;;;;;0.7;0.7;;;;;;;10.3;100.0;99720;;;;
2022/12/29 03:38:11;;;;;;;0.7;0.7;;;;;;;10.3;100.0;99720;;;;
2022/12/29 03:39:05;;;;;;;0.7;0.7;;;;;;;10.3;100.0;99720;;;;
2022/12/29 03:40:00;;;;;;;0.7;0.7;;;;;;;10.3;100.0;99720;;;;
2022/12/29 03:41:03;;;;;;;0.7;0.7;;;;;;;10.3;100.0;99720;;;;
2022/12/29 03:42:02;;;;;;;0.7;0.7;;;;;;;10.3;100.0;99710;;;;
2022/12/29 03:43:02;;;;;;;0.7;0.7;;;;;;;10.3;100.0;99710;;;;
2022/12/29 03:44:00;;;;;;;0.7;0.7;;;;;;;10.2;100.0;99710;;;;
2022/12/29 03:45:00;;;;;;;0.7;0.7;;;;;;;10.2;100.0;99710;;;;
2022/12/29 03:46:00;;;;;;;0.7;0.7;;;;;;;10.2;100.0;99720;;;;
2022/12/29 03:47:00;;;;;;;0.7;0.7;;;;;;;10.2;100.0;99720;;;;
2022/12/29 03:48:00;;;;;;;0.7;0.7;;;;;;;10.2;100.0;99710;;;;
2022/12/29 03:49:00;;;;;;;0.7;0.7;;;;;;;10.2;100.0;99710;;;;
2022/12/29 03:50:00;;;;;;;0.7;0.7;;;;;;;10.3;100.0;99710;;;;
2022/12/29 03:51:00;;;;;;;0.7;0.7;;;;;;;10.3;100.0;99710;;;;
2022/12/29 03:52:00;;;;;;;0.7;0.7;;;;;;;10.4;100.0;99700;;;;
2022/12/29 03:53:00;;;;;;;0.7;0.7;;;;;;;10.4;100.0;99700;;;;
2022/12/29 03:54:00;;;;;;;0.7;0.7;;;;;;;10.3;100.0;99730;;;;
2022/12/29 03:55:00;;;;;;;0.7;0.7;;;;;;;10.3;100.0;99730;;;;
2022/12/29 03:56:00;;;;;;;0.7;0.7;;;;;;;10.2;100.0;99710;;;;
2022/12/29 03:57:00;;;;;;;0.7;0.7;;;;;;;10.2;100.0;99710;;;;
2022/12/29 03:58:00;;;;;;;0.7;0.7;;;;;;;10.3;100.0;99710;;;;
2022/12/29 03:59:00;;;;;;;0.7;0.7;;;;;;;10.3;100.0;99710;;;;
2022/12/29 04:00:00;;;;;;;0.7;0.7;;;;;;;10.3;100.0;99720;;;;
2022/12/29 04:01:00;;;;;;;0.7;0.7;;;;;;;10.3;100.0;99720;;;;
2022/12/29 04:02:00;;;;;;;0.7;0.7;;;;;;;10.3;100.0;99700;;;;
2022/12/29 04:03:00;;;;;;;0.7;0.7;;;;;;;10.3;100.0;99700;;;;
2022/12/29 04:04:00;;;;;;;0.7;0.7;;;;;;;10.2;100.0;99710;;;;
2022/12/29 04:05:00;;;;;;;0.7;0.7;;;;;;;10.2;100.0;99710;;;;
2022/12/29 04:06:00;;;;;;;0.7;0.7;;;;;;;10.2;100.0;99720;;;;
2022/12/29 04:07:00;;;;;;;0.7;0.7;;;;;;;10.2;100.0;99720;;;;
2022/12/29 04:08:00;;;;;;;0.7;0.7;;;;;;;10.2;100.0;99720;;;;
2022/12/29 04:09:01;;;;;;;0.7;0.7;;;;;;;10.2;100.0;99720;;;;
2022/12/29 04:10:00;;;;;;;0.7;0.7;;;;;;;10.2;100.0;99710;;;;
2022/12/29 04:11:00;;;;;;;0.7;0.7;;;;;;;10.2;100.0;99710;;;;
2022/12/29 04:12:00;;;;;;;0.7;0.7;;;;;;;10.2;100.0;99710;;;;
2022/12/29 04:13:00;;;;;;;0.7;0.7;;;;;;;10.2;100.0;99710;;;;
2022/12/29 04:14:00;;;;;;;0.8;0.8;;;;;;;10.2;100.0;99730;;;;
2022/12/29 04:15:00;;;;;;;0.8;0.8;;;;;;;10.2;100.0;99730;;;;
2022/12/29 04:16:00;;;;;;;0.8;0.8;;;;;;;10.0;100.0;99730;;;;
2022/12/29 04:17:00;;;;;;;0.8;0.8;;;;;;;10.0;100.0;99730;;;;
2022/12/29 04:18:00;;;;;;;0.8;0.8;;;;;;;10.0;100.0;99730;;;;
2022/12/29 04:19:00;;;;;;;0.8;0.8;;;;;;;10.0;100.0;99730;;;;
2022/12/29 04:21:00;;;;;;;0.8;0.8;;;;;;;10.0;100.0;99730;;;;
2022/12/29 04:22:00;;;;;;;0.8;0.8;;;;;;;10.1;100.0;99730;;;;
2022/12/29 04:23:02;;;;;;;0.8;0.8;;;;;;;10.1;100.0;99730;;;;
2022/12/29 04:24:00;;;;;;;0.8;0.8;;;;;;;10.0;100.0;99710;;;;
2022/12/29 04:25:00;;;;;;;0.8;0.8;;;;;;;10.0;100.0;99710;;;;
2022/12/29 04:26:00;;;;;;;0.8;0.8;;;;;;;10.0;100.0;99710;;;;
2022/12/29 04:27:00;;;;;;;0.8;0.8;;;;;;;10.0;100.0;99710;;;;
2022/12/29 04:28:00;;;;;;;0.8;0.8;;;;;;;9.9;100.0;99720;;;;
2022/12/29 04:29:00;;;;;;;0.8;0.8;;;;;;;9.9;100.0;99720;;;;
2022/12/29 04:30:00;;;;;;;0.8;0.8;;;;;;;9.9;100.0;99730;;;;
2022/12/29 04:31:00;;;;;;;0.8;0.8;;;;;;;9.9;100.0;99730;;;;
2022/12/29 04:32:00;;;;;;;0.8;0.8;;;;;;;9.9;100.0;99730;;;;
2022/12/29 04:33:00;;;;;;;0.8;0.8;;;;;;;9.9;100.0;99730;;;;
2022/12/29 04:34:00;;;;;;;0.8;0.8;;;;;;;9.9;100.0;99730;;;;
2022/12/29 04:35:00;;;;;;;0.8;0.8;;;;;;;9.9;100.0;99730;;;;
2022/12/29 04:36:00;;;;;;;0.8;0.8;;;;;;;9.8;100.0;99730;;;;
2022/12/29 04:37:00;;;;;;;0.8;0.8;;;;;;;9.8;100.0;99730;;;;
2022/12/29 04:38:00;;;;;;;0.8;0.8;;;;;;;9.8;100.0;99730;;;;
2022/12/29 04:39:00;;;;;;;0.8;0.8;;;;;;;9.8;100.0;99730;;;;
2022/12/29 04:40:00;;;;;;;0.8;0.8;;;;;;;9.7;100.0;99720;;;;
2022/12/29 04:41:00;;;;;;;0.8;0.8;;;;;;;9.7;100.0;99720;;;;
2022/12/29 04:42:00;;;;;;;0.8;0.8;;;;;;;9.6;100.0;99720;;;;
2022/12/29 04:43:00;;;;;;;0.8;0.8;;;;;;;9.6;100.0;99720;;;;
2022/12/29 04:44:00;;;;;;;0.8;0.8;;;;;;;9.6;100.0;99730;;;;
2022/12/29 04:45:00;;;;;;;0.8;0.8;;;;;;;9.6;100.0;99730;;;;
2022/12/29 04:46:00;;;;;;;0.8;0.8;;;;;;;9.6;100.0;99730;;;;
2022/12/29 04:47:00;;;;;;;0.8;0.8;;;;;;;9.6;100.0;99730;;;;
2022/12/29 04:48:00;;;;;;;0.8;0.8;;;;;;;9.6;100.0;99730;;;;
2022/12/29 04:49:04;;;;;;;0.8;0.8;;;;;;;9.6;100.0;99730;;;;
2022/12/29 04:50:00;;;;;;;0.8;0.8;;;;;;;9.4;100.0;99730;;;;
2022/12/29 04:51:00;;;;;;;0.8;0.8;;;;;;;9.4;100.0;99730;;;;
2022/12/29 04:52:00;;;;;;;0.8;0.8;;;;;;;9.6;100.0;99740;;;;
2022/12/29 04:53:00;;;;;;;0.8;0.8;;;;;;;9.6;100.0;99740;;;;
2022/12/29 04:54:00;;;;;;;0.8;0.8;;;;;;;9.4;100.0;99730;;;;
2022/12/29 04:55:00;;;;;;;0.8;0.8;;;;;;;9.4;100.0;99730;;;;
2022/12/29 04:56:00;;;;;;;0.8;0.8;;;;;;;9.5;100.0;99720;;;;
2022/12/29 04:57:00;;;;;;;0.8;0.8;;;;;;;9.5;100.0;99720;;;;
2022/12/29 04:58:00;;;;;;;0.8;0.8;;;;;;;9.4;100.0;99730;;;;
2022/12/29 04:59:00;;;;;;;0.8;0.8;;;;;;;9.4;100.0;99730;;;;
2022/12/29 05:00:01;;;;;;;0.8;0.8;;;;;;;9.3;100.0;99740;;;;
2022/12/29 05:01:00;;;;;;;0.8;0.8;;;;;;;9.3;100.0;99740;;;;
2022/12/29 05:02:00;;;;;;;0.8;0.8;;;;;;;9.3;100.0;99740;;;;
2022/12/29 05:03:00;;;;;;;0.8;0.8;;;;;;;9.3;100.0;99740;;;;
2022/12/29 05:04:00;;;;;;;0.8;0.8;;;;;;;9.2;100.0;99750;;;;
2022/12/29 05:05:00;;;;;;;0.8;0.8;;;;;;;9.2;100.0;99750;;;;
2022/12/29 05:06:00;;;;;;;0.8;0.8;;;;;;;9.2;100.0;99750;;;;
2022/12/29 05:07:00;;;;;;;0.8;0.8;;;;;;;9.2;100.0;99750;;;;
2022/12/29 05:08:00;;;;;;;0.8;0.8;;;;;;;9.2;100.0;99760;;;;
2022/12/29 05:09:00;;;;;;;0.8;0.8;;;;;;;9.2;100.0;99760;;;;
2022/12/29 05:10:00;;;;;;;0.8;0.8;;;;;;;9.1;100.0;99760;;;;
2022/12/29 05:11:00;;;;;;;0.8;0.8;;;;;;;9.1;100.0;99760;;;;
2022/12/29 05:12:00;;;;;;;0.8;0.8;;;;;;;9.2;100.0;99760;;;;
2022/12/29 05:13:00;;;;;;;0.8;0.8;;;;;;;9.2;100.0;99760;;;;
2022/12/29 05:14:00;;;;;;;0.8;0.8;;;;;;;9.2;100.0;99760;;;;
2022/12/29 05:15:02;;;;;;;0.8;0.8;;;;;;;9.2;100.0;99760;;;;
2022/12/29 05:16:00;;;;;;;0.8;0.8;;;;;;;9.1;100.0;99760;;;;
2022/12/29 05:17:00;;;;;;;0.8;0.8;;;;;;;9.1;100.0;99760;;;;
2022/12/29 05:18:00;;;;;;;0.8;0.8;;;;;;;9.0;100.0;99770;;;;
2022/12/29 05:19:00;;;;;;;0.8;0.8;;;;;;;9.0;100.0;99770;;;;
2022/12/29 05:20:00;;;;;;;0.8;0.8;;;;;;;8.9;100.0;99780;;;;
2022/12/29 05:21:00;;;;;;;0.8;0.8;;;;;;;8.9;100.0;99780;;;;
2022/12/29 05:22:00;;;;;;;0.8;0.8;;;;;;;9.0;100.0;99780;;;;
2022/12/29 05:23:00;;;;;;;0.8;0.8;;;;;;;9.0;100.0;99780;;;;
2022/12/29 05:24:00;;;;;;;0.8;0.8;;;;;;;9.1;100.0;99780;;;;
2022/12/29 05:25:00;;;;;;;0.8;0.8;;;;;;;9.1;100.0;99780;;;;
2022/12/29 05:26:00;;;;;;;0.8;0.8;;;;;;;9.0;100.0;99780;;;;
2022/12/29 05:27:00;;;;;;;0.8;0.8;;;;;;;9.0;100.0;99780;;;;
2022/12/29 05:28:00;;;;;;;0.8;0.8;;;;;;;9.1;100.0;99780;;;;
2022/12/29 05:29:00;;;;;;;0.8;0.8;;;;;;;9.1;100.0;99780;;;;
2022/12/29 05:30:00;;;;;;;0.8;0.8;;;;;;;8.9;100.0;99790;;;;
2022/12/29 05:31:00;;;;;;;0.8;0.8;;;;;;;8.9;100.0;99790;;;;
2022/12/29 05:32:00;;;;;;;0.8;0.8;;;;;;;8.9;100.0;99800;;;;
2022/12/29 05:33:00;;;;;;;0.8;0.8;;;;;;;8.9;100.0;99800;;;;
2022/12/29 05:34:00;;;;;;;0.9;0.9;;;;;;;8.9;100.0;99790;;;;
2022/12/29 05:35:00;;;;;;;0.9;0.9;;;;;;;8.9;100.0;99790;;;;
2022/12/29 05:36:04;;;;;;;0.9;0.9;;;;;;;8.9;100.0;99790;;;;
2022/12/29 05:37:02;;;;;;;0.9;0.9;;;;;;;8.9;100.0;99790;;;;
2022/12/29 05:38:00;;;;;;;0.9;0.9;;;;;;;8.9;100.0;99800;;;;
2022/12/29 05:39:00;;;;;;;0.9;0.9;;;;;;;8.9;100.0;99800;;;;
2022/12/29 05:40:00;;;;;;;0.9;0.9;;;;;;;8.9;100.0;99800;;;;
2022/12/29 05:41:00;;;;;;;0.9;0.9;;;;;;;8.9;100.0;99800;;;;
2022/12/29 05:42:00;;;;;;;0.9;0.9;;;;;;;8.9;100.0;99800;;;;
2022/12/29 05:43:00;;;;;;;0.9;0.9;;;;;;;8.9;100.0;99800;;;;
2022/12/29 05:44:00;;;;;;;0.9;0.9;;;;;;;9.0;100.0;99810;;;;
2022/12/29 05:45:00;;;;;;;0.9;0.9;;;;;;;9.0;100.0;99810;;;;
2022/12/29 05:46:01;;;;;;;0.9;0.9;;;;;;;8.9;100.0;99810;;;;
2022/12/29 05:47:00;;;;;;;0.9;0.9;;;;;;;8.9;100.0;99810;;;;
2022/12/29 05:48:00;;;;;;;0.9;0.9;;;;;;;9.1;100.0;99800;;;;
2022/12/29 05:49:00;;;;;;;0.9;0.9;;;;;;;9.1;100.0;99800;;;;
2022/12/29 05:50:00;;;;;;;0.9;0.9;;;;;;;9.0;100.0;99800;;;;
2022/12/29 05:51:00;;;;;;;0.9;0.9;;;;;;;9.0;100.0;99800;;;;
2022/12/29 05:52:00;;;;;;;0.9;0.9;;;;;;;9.0;100.0;99800;;;;
2022/12/29 05:53:00;;;;;;;0.9;0.9;;;;;;;9.0;100.0;99800;;;;
2022/12/29 05:54:00;;;;;;;1.0;1.0;;;;;;;9.0;100.0;99810;;;;
2022/12/29 05:55:00;;;;;;;1.0;1.0;;;;;;;9.0;100.0;99810;;;;
2022/12/29 05:56:00;;;;;;;1.0;1.0;;;;;;;9.0;100.0;99810;;;;
2022/12/29 05:57:00;;;;;;;1.0;1.0;;;;;;;9.0;100.0;99810;;;;
2022/12/29 05:58:00;;;;;;;1.0;1.0;;;;;;;9.1;100.0;99820;;;;
2022/12/29 05:59:00;;;;;;;1.0;1.0;;;;;;;9.1;100.0;99820;;;;
2022/12/29 06:00:00;;;;;;;1.0;1.0;;;;;;;9.1;100.0;99820;;;;
2022/12/29 06:01:00;;;;;;;1.0;1.0;;;;;;;9.1;100.0;99820;;;;
2022/12/29 06:02:00;;;;;;;1.0;1.0;;;;;;;9.1;100.0;99820;;;;
2022/12/29 06:03:00;;;;;;;1.0;1.0;;;;;;;9.1;100.0;99820;;;;
2022/12/29 06:04:01;;;;;;;1.0;1.0;;;;;;;9.1;100.0;99820;;;;
2022/12/29 06:05:00;;;;;;;1.0;1.0;;;;;;;9.1;100.0;99820;;;;
2022/12/29 06:06:00;;;;;;;1.0;1.0;;;;;;;9.1;100.0;99820;;;;
2022/12/29 06:07:00;;;;;;;1.0;1.0;;;;;;;9.1;100.0;99820;;;;
2022/12/29 06:08:00;;;;;;;1.0;1.0;;;;;;;9.1;100.0;99820;;;;
2022/12/29 06:09:00;;;;;;;1.0;1.0;;;;;;;9.1;100.0;99820;;;;
2022/12/29 06:10:00;;;;;;;1.0;1.0;;;;;;;9.1;100.0;99820;;;;
2022/12/29 06:11:00;;;;;;;1.0;1.0;;;;;;;9.1;100.0;99820;;;;
2022/12/29 06:12:00;;;;;;;1.0;1.0;;;;;;;9.1;100.0;99830;;;;
2022/12/29 06:13:00;;;;;;;1.0;1.0;;;;;;;9.1;100.0;99830;;;;
2022/12/29 06:14:00;;;;;;;1.0;1.0;;;;;;;9.2;100.0;99820;;;;
2022/12/29 06:15:00;;;;;;;1.0;1.0;;;;;;;9.2;100.0;99820;;;;
2022/12/29 06:16:00;;;;;;;1.0;1.0;;;;;;;9.2;100.0;99810;;;;
2022/12/29 06:17:00;;;;;;;1.0;1.0;;;;;;;9.2;100.0;99810;;;;
2022/12/29 06:18:00;;;;;;;1.0;1.0;;;;;;;9.1;100.0;99820;;;;
2022/12/29 06:19:00;;;;;;;1.0;1.0;;;;;;;9.1;100.0;99820;;;;
2022/12/29 06:20:01;;;;;;;1.0;1.0;;;;;;;9.1;100.0;99810;;;;
2022/12/29 06:21:01;;;;;;;1.0;1.0;;;;;;;9.1;100.0;99810;;;;
2022/12/29 06:22:00;;;;;;;1.0;1.0;;;;;;;9.1;100.0;99820;;;;
2022/12/29 06:23:00;;;;;;;1.0;1.0;;;;;;;9.1;100.0;99820;;;;
2022/12/29 06:24:00;;;;;;;1.0;1.0;;;;;;;9.2;100.0;99820;;;;
2022/12/29 06:25:05;;;;;;;1.0;1.0;;;;;;;9.2;100.0;99820;;;;
2022/12/29 06:26:00;;;;;;;1.0;1.0;;;;;;;9.2;100.0;99820;;;;
2022/12/29 06:27:00;;;;;;;1.0;1.0;;;;;;;9.2;100.0;99820;;;;
2022/12/29 06:28:00;;;;;;;1.0;1.0;;;;;;;9.2;100.0;99810;;;;
2022/12/29 06:29:01;;;;;;;1.0;1.0;;;;;;;9.2;100.0;99810;;;;
2022/12/29 06:30:00;;;;;;;1.0;1.0;;;;;;;9.2;100.0;99810;;;;
2022/12/29 06:31:02;;;;;;;1.0;1.0;;;;;;;9.2;100.0;99810;;;;
2022/12/29 06:32:00;;;;;;;1.0;1.0;;;;;;;9.2;100.0;99820;;;;
2022/12/29 06:33:00;;;;;;;1.0;1.0;;;;;;;9.2;100.0;99820;;;;
2022/12/29 06:34:08;;;;;;;0.9;0.9;;;;;;;9.1;100.0;99810;;;;
2022/12/29 06:35:00;;;;;;;0.9;0.9;;;;;;;9.1;100.0;99810;;;;
2022/12/29 06:36:00;;;;;;;0.9;0.9;;;;;;;9.1;100.0;99810;;;;
2022/12/29 06:37:01;;;;;;;0.9;0.9;;;;;;;9.1;100.0;99810;;;;
2022/12/29 06:38:00;;;;;;;0.9;0.9;;;;;;;9.1;100.0;99810;;;;
2022/12/29 06:39:00;;;;;;;0.9;0.9;;;;;;;9.1;100.0;99810;;;;
2022/12/29 06:40:00;;;;;;;0.9;0.9;;;;;;;9.0;100.0;99810;;;;
2022/12/29 06:41:00;;;;;;;0.9;0.9;;;;;;;9.0;100.0;99810;;;;
2022/12/29 06:42:00;;;;;;;0.9;0.9;;;;;;;9.0;100.0;99810;;;;
2022/12/29 06:43:00;;;;;;;0.9;0.9;;;;;;;9.0;100.0;99810;;;;
2022/12/29 06:44:00;;;;;;;0.9;0.9;;;;;;;9.1;100.0;99790;;;;
2022/12/29 06:45:00;;;;;;;0.9;0.9;;;;;;;9.1;100.0;99790;;;;
2022/12/29 06:46:00;;;;;;;0.9;0.9;;;;;;;9.1;100.0;99790;;;;
2022/12/29 06:47:00;;;;;;;0.9;0.9;;;;;;;9.1;100.0;99790;;;;
2022/12/29 06:48:00;;;;;;;0.9;0.9;;;;;;;9.0;100.0;99810;;;;
2022/12/29 06:49:00;;;;;;;0.9;0.9;;;;;;;9.0;100.0;99810;;;;
2022/12/29 06:50:00;;;;;;;0.9;0.9;;;;;;;9.0;100.0;99810;;;;
2022/12/29 06:51:00;;;;;;;0.9;0.9;;;;;;;9.0;100.0;99810;;;;
2022/12/29 06:52:03;;;;;;;0.9;0.9;;;;;;;9.1;100.0;99810;;;;
2022/12/29 06:53:00;;;;;;;0.9;0.9;;;;;;;9.1;100.0;99810;;;;
2022/12/29 06:54:00;;;;;;;0.9;0.9;;;;;;;9.1;100.0;99810;;;;
2022/12/29 06:55:00;;;;;;;0.9;0.9;;;;;;;9.1;100.0;99810;;;;
2022/12/29 06:56:00;;;;;;;0.9;0.9;;;;;;;9.0;100.0;99810;;;;
2022/12/29 06:57:00;;;;;;;0.9;0.9;;;;;;;9.0;100.0;99810;;;;
2022/12/29 06:58:01;;;;;;;0.9;0.9;;;;;;;9.1;100.0;99830;;;;
2022/12/29 06:59:00;;;;;;;0.9;0.9;;;;;;;9.1;100.0;99830;;;;
2022/12/29 07:00:00;;;;;;;0.9;0.9;;;;;;;9.0;100.0;99810;;;;
2022/12/29 07:01:00;;;;;;;0.9;0.9;;;;;;;9.0;100.0;99810;;;;
2022/12/29 07:02:01;;;;;;;0.9;0.9;;;;;;;9.1;100.0;99800;;;;
2022/12/29 07:03:00;;;;;;;0.9;0.9;;;;;;;9.1;100.0;99800;;;;
2022/12/29 07:04:00;;;;;;;0.9;0.9;;;;;;;9.0;100.0;99810;;;;
2022/12/29 07:05:00;;;;;;;0.9;0.9;;;;;;;9.0;100.0;99810;;;;
2022/12/29 07:06:00;;;;;;;0.9;0.9;;;;;;;9.0;100.0;99820;;;;
2022/12/29 07:07:00;;;;;;;0.9;0.9;;;;;;;9.0;100.0;99820;;;;